createdAt,value
2018-11-04T00:01:50.019Z,-0.69
2018-11-04T00:04:18.133Z,-0.67
2018-11-04T00:06:46.335Z,-0.66
2018-11-04T00:09:16.259Z,-0.67
2018-11-04T00:11:44.890Z,-0.70
2018-11-04T00:14:13.022Z,-0.75
2018-11-04T00:16:41.500Z,-0.74
2018-11-04T00:19:09.653Z,-0.70
2018-11-04T00:21:37.954Z,-0.67
2018-11-04T00:24:06.145Z,-0.68
2018-11-04T00:26:34.781Z,-0.72
2018-11-04T00:29:03.185Z,-0.71
2018-11-04T00:31:31.347Z,-0.63
2018-11-04T00:33:59.525Z,-0.57
2018-11-04T00:36:27.750Z,-0.54
2018-11-04T00:38:55.924Z,-0.43
2018-11-04T00:41:24.031Z,-0.34
2018-11-04T00:43:52.277Z,-0.34
2018-11-04T00:46:20.523Z,-0.26
2018-11-04T00:48:49.170Z,-0.25
2018-11-04T00:51:17.337Z,-0.26
2018-11-04T00:53:45.469Z,-0.26
2018-11-04T00:56:14.206Z,-0.18
2018-11-04T00:58:42.432Z,-0.08
2018-11-04T01:01:10.889Z,0.02
2018-11-04T01:03:39.201Z,0.34
2018-11-04T01:06:07.466Z,0.56
2018-11-04T01:08:35.870Z,0.79
2018-11-04T01:11:04.174Z,0.70
2018-11-04T01:13:33.732Z,0.68
2018-11-04T01:16:01.961Z,0.71
2018-11-04T01:18:30.309Z,0.74
2018-11-04T01:20:59.106Z,0.70
2018-11-04T01:23:27.194Z,0.67
2018-11-04T01:25:56.449Z,0.64
2018-11-04T01:28:24.786Z,0.71
2018-11-04T01:30:53.975Z,0.76
2018-11-04T01:33:22.253Z,0.83
2018-11-04T01:35:50.368Z,0.92
2018-11-04T01:38:18.575Z,0.93
2018-11-04T01:40:46.745Z,1.03
2018-11-04T01:43:15.039Z,1.19
2018-11-04T01:45:43.397Z,1.22
2018-11-04T01:48:11.802Z,1.28
2018-11-04T01:50:41.250Z,1.37
2018-11-04T01:53:09.619Z,1.43
2018-11-04T01:55:37.733Z,1.70
2018-11-04T01:58:06.365Z,1.77
2018-11-04T02:00:34.792Z,1.77
2018-11-04T02:03:03.130Z,1.78
2018-11-04T02:05:31.303Z,1.74
2018-11-04T02:07:59.724Z,1.85
2018-11-04T02:10:27.936Z,1.81
2018-11-04T02:12:56.392Z,1.76
2018-11-04T02:15:24.717Z,1.74
2018-11-04T02:17:52.943Z,1.69
2018-11-04T02:20:21.159Z,1.66
2018-11-04T02:22:49.441Z,1.67
2018-11-04T02:25:17.560Z,1.66
2018-11-04T02:27:45.697Z,1.67
2018-11-04T02:30:14.935Z,1.69
2018-11-04T02:32:43.918Z,1.78
2018-11-04T02:35:12.575Z,1.78
2018-11-04T02:37:41.132Z,1.77
2018-11-04T02:40:09.511Z,1.76
2018-11-04T02:42:37.735Z,1.78
2018-11-04T02:45:06.401Z,1.75
2018-11-04T02:47:34.753Z,1.73
2018-11-04T02:50:02.870Z,1.59
2018-11-04T02:52:31.093Z,1.48
2018-11-04T02:54:59.253Z,1.44
2018-11-04T02:57:27.503Z,1.41
2018-11-04T02:59:55.629Z,1.36
2018-11-04T03:02:23.754Z,1.46
2018-11-04T03:04:51.869Z,1.50
2018-11-04T03:07:20.019Z,1.48
2018-11-04T03:09:48.189Z,1.54
2018-11-04T03:12:16.314Z,1.56
2018-11-04T03:14:44.421Z,1.63
2018-11-04T03:17:12.547Z,1.65
2018-11-04T03:19:40.679Z,1.64
2018-11-04T03:22:08.805Z,1.66
2018-11-04T03:24:36.962Z,1.70
2018-11-04T03:27:05.938Z,1.68
2018-11-04T03:29:34.092Z,1.70
2018-11-04T03:32:02.221Z,1.71
2018-11-04T03:34:30.314Z,1.70
2018-11-04T03:36:58.447Z,1.63
2018-11-04T03:39:26.534Z,1.67
2018-11-04T03:41:54.651Z,1.66
2018-11-04T03:44:22.781Z,1.67
2018-11-04T03:46:50.891Z,1.67
2018-11-04T03:49:19.105Z,1.71
2018-11-04T03:51:47.224Z,1.70
2018-11-04T03:54:15.353Z,1.70
2018-11-04T03:56:43.466Z,1.69
2018-11-04T03:59:11.622Z,1.72
2018-11-04T04:01:39.773Z,1.73
2018-11-04T04:04:07.863Z,1.80
2018-11-04T04:06:35.955Z,1.82
2018-11-04T04:09:05.122Z,1.84
2018-11-04T04:11:33.237Z,1.88
2018-11-04T04:14:01.430Z,1.87
2018-11-04T04:16:29.620Z,1.85
2018-11-04T04:18:57.767Z,1.86
2018-11-04T04:21:25.930Z,1.95
2018-11-04T04:23:54.101Z,2.00
2018-11-04T04:26:22.260Z,2.01
2018-11-04T04:28:50.629Z,2.04
2018-11-04T04:31:18.750Z,2.04
2018-11-04T04:33:46.876Z,2.07
2018-11-04T04:36:14.995Z,2.12
2018-11-04T04:38:43.179Z,2.15
2018-11-04T04:41:11.295Z,2.18
2018-11-04T04:43:39.566Z,2.21
2018-11-04T04:46:07.699Z,2.27
2018-11-04T04:48:35.822Z,2.29
2018-11-04T04:51:03.934Z,2.33
2018-11-04T04:53:32.098Z,2.39
2018-11-04T04:56:00.213Z,2.40
2018-11-04T04:58:28.328Z,2.41
2018-11-04T05:00:56.519Z,2.36
2018-11-04T05:03:24.653Z,2.40
2018-11-04T05:05:53.268Z,2.40
2018-11-04T05:08:21.403Z,2.39
2018-11-04T05:10:49.940Z,2.39
2018-11-04T05:13:18.225Z,2.41
2018-11-04T05:15:46.363Z,2.45
2018-11-04T05:18:14.498Z,2.48
2018-11-04T05:20:42.628Z,2.53
2018-11-04T05:23:10.759Z,2.63
2018-11-04T05:25:38.888Z,2.68
2018-11-04T05:28:07.614Z,2.73
2018-11-04T05:30:36.647Z,2.75
2018-11-04T05:33:05.069Z,2.72
2018-11-04T05:35:33.204Z,2.74
2018-11-04T05:38:01.486Z,2.73
2018-11-04T05:40:29.667Z,2.71
2018-11-04T05:42:57.837Z,2.67
2018-11-04T05:45:25.969Z,2.67
2018-11-04T05:47:54.092Z,2.67
2018-11-04T05:50:22.239Z,2.67
2018-11-04T05:52:50.451Z,2.73
2018-11-04T05:55:18.571Z,2.80
2018-11-04T05:57:46.771Z,2.81
2018-11-04T06:00:14.861Z,2.88
2018-11-04T06:02:42.991Z,2.94
2018-11-04T06:05:11.706Z,2.91
2018-11-04T06:07:40.174Z,3.00
2018-11-04T06:10:08.321Z,3.01
2018-11-04T06:12:36.880Z,2.96
2018-11-04T06:15:06.054Z,2.96
2018-11-04T06:17:34.186Z,3.03
2018-11-04T06:20:02.298Z,3.04
2018-11-04T06:22:30.402Z,3.07
2018-11-04T06:24:58.525Z,3.08
2018-11-04T06:27:26.646Z,3.07
2018-11-04T06:29:54.837Z,3.07
2018-11-04T06:32:23.084Z,3.09
2018-11-04T06:34:51.207Z,3.10
2018-11-04T06:37:19.374Z,3.12
2018-11-04T06:39:47.974Z,3.04
2018-11-04T06:42:16.093Z,2.93
2018-11-04T06:44:44.217Z,2.85
2018-11-04T06:47:12.429Z,2.90
2018-11-04T06:49:40.529Z,2.93
2018-11-04T06:52:08.644Z,2.93
2018-11-04T06:54:36.797Z,2.99
2018-11-04T06:57:05.101Z,3.00
2018-11-04T06:59:33.317Z,3.01
2018-11-04T07:02:01.466Z,3.02
2018-11-04T07:04:30.113Z,3.04
2018-11-04T07:06:58.485Z,2.90
2018-11-04T07:09:26.614Z,2.83
2018-11-04T07:11:54.733Z,2.88
2018-11-04T07:14:23.405Z,2.90
2018-11-04T07:16:51.536Z,2.92
2018-11-04T07:19:19.658Z,2.93
2018-11-04T07:21:47.818Z,3.02
2018-11-04T07:24:15.961Z,3.04
2018-11-04T07:26:44.084Z,3.15
2018-11-04T07:29:12.223Z,3.22
2018-11-04T07:31:40.336Z,3.28
2018-11-04T07:34:08.817Z,3.31
2018-11-04T07:36:36.984Z,3.31
2018-11-04T07:39:08.529Z,3.45
2018-11-04T07:41:36.648Z,3.51
2018-11-04T07:44:04.899Z,3.49
2018-11-04T07:46:32.971Z,3.48
2018-11-04T07:49:01.109Z,3.61
2018-11-04T07:51:29.275Z,3.68
2018-11-04T07:53:57.466Z,3.75
2018-11-04T07:56:25.593Z,3.93
2018-11-04T07:58:53.701Z,4.05
2018-11-04T08:01:21.896Z,4.06
2018-11-04T08:03:50.015Z,4.09
2018-11-04T08:06:18.201Z,4.20
2018-11-04T08:08:46.397Z,4.30
2018-11-04T08:11:14.523Z,4.39
2018-11-04T08:13:42.782Z,4.47
2018-11-04T08:16:10.753Z,4.55
2018-11-04T08:18:38.885Z,4.67
2018-11-04T08:21:07.036Z,4.94
2018-11-04T08:23:35.167Z,4.86
2018-11-04T08:26:03.387Z,4.74
2018-11-04T08:28:31.541Z,4.88
2018-11-04T08:30:59.690Z,5.01
2018-11-04T08:33:27.862Z,5.17
2018-11-04T08:35:56.532Z,5.32
2018-11-04T08:38:24.715Z,5.31
2018-11-04T08:40:59.640Z,5.24
2018-11-04T08:43:27.778Z,5.22
2018-11-04T08:45:56.211Z,5.31
2018-11-04T08:48:24.294Z,5.78
2018-11-04T08:50:52.450Z,6.13
2018-11-04T08:53:20.601Z,6.51
2018-11-04T08:55:48.770Z,6.58
2018-11-04T08:58:17.168Z,7.14
2018-11-04T09:00:45.306Z,7.57
2018-11-04T09:03:13.458Z,8.01
2018-11-04T09:05:41.619Z,8.26
2018-11-04T09:08:09.778Z,8.53
2018-11-04T09:10:37.942Z,9.14
2018-11-04T09:13:06.096Z,9.67
2018-11-04T09:15:34.262Z,9.76
2018-11-04T09:18:02.479Z,9.91
2018-11-04T09:20:30.727Z,10.00
2018-11-04T09:22:58.854Z,9.65
2018-11-04T09:25:27.098Z,9.59
2018-11-04T09:27:55.325Z,9.40
2018-11-04T09:30:23.479Z,8.73
2018-11-04T09:32:51.662Z,8.87
2018-11-04T09:35:19.870Z,9.14
2018-11-04T09:37:48.156Z,9.41
2018-11-04T09:40:16.349Z,9.48
2018-11-04T09:42:44.490Z,9.52
2018-11-04T09:45:12.670Z,9.60
2018-11-04T09:47:41.535Z,9.67
2018-11-04T09:50:11.147Z,10.10
2018-11-04T09:52:39.539Z,10.25
2018-11-04T09:55:08.999Z,10.18
2018-11-04T09:57:37.159Z,10.14
2018-11-04T10:00:06.653Z,10.05
2018-11-04T10:02:34.794Z,9.96
2018-11-04T10:05:02.942Z,10.14
2018-11-04T10:07:31.159Z,10.42
2018-11-04T10:09:59.291Z,10.18
2018-11-04T10:12:27.437Z,10.39
2018-11-04T10:14:55.607Z,10.45
2018-11-04T10:17:23.910Z,10.61
2018-11-04T10:19:52.396Z,10.45
2018-11-04T10:22:20.237Z,10.50
2018-11-04T10:24:48.446Z,10.72
2018-11-04T10:27:16.590Z,10.59
2018-11-04T10:29:45.633Z,10.65
2018-11-04T10:32:13.778Z,10.97
2018-11-04T10:34:41.933Z,11.16
2018-11-04T10:37:12.387Z,11.25
2018-11-04T10:39:40.574Z,11.36
2018-11-04T10:42:08.783Z,11.41
2018-11-04T10:44:37.898Z,11.34
2018-11-04T10:47:06.222Z,11.72
2018-11-04T10:49:34.527Z,11.64
2018-11-04T10:52:02.646Z,11.08
2018-11-04T10:54:30.810Z,11.42
2018-11-04T10:56:59.030Z,11.86
2018-11-04T10:59:27.155Z,12.57
2018-11-04T11:01:55.359Z,12.59
2018-11-04T11:04:23.956Z,12.97
2018-11-04T11:06:52.129Z,12.85
2018-11-04T11:09:20.287Z,12.53
2018-11-04T11:11:48.432Z,12.14
2018-11-04T11:14:16.574Z,12.26
2018-11-04T11:16:44.743Z,11.90
2018-11-04T11:19:13.090Z,11.62
2018-11-04T11:21:41.246Z,12.05
2018-11-04T11:24:09.435Z,12.27
2018-11-04T11:26:37.628Z,12.47
2018-11-04T11:29:05.798Z,12.68
2018-11-04T11:31:34.351Z,11.89
2018-11-04T11:34:02.517Z,11.36
2018-11-04T11:36:30.658Z,11.06
2018-11-04T11:38:58.889Z,10.84
2018-11-04T11:41:27.159Z,10.98
2018-11-04T11:43:55.303Z,10.82
2018-11-04T11:46:23.802Z,10.92
2018-11-04T11:48:51.970Z,10.93
2018-11-04T11:51:20.134Z,11.09
2018-11-04T11:53:49.545Z,11.03
2018-11-04T11:56:17.706Z,11.25
2018-11-04T11:58:46.006Z,11.05
2018-11-04T12:01:14.204Z,11.06
2018-11-04T12:03:42.354Z,11.32
2018-11-04T12:06:10.561Z,11.18
2018-11-04T12:08:38.846Z,11.20
2018-11-04T12:11:06.990Z,11.28
2018-11-04T12:13:35.151Z,11.26
2018-11-04T12:16:03.362Z,11.23
2018-11-04T12:18:31.495Z,11.24
2018-11-04T12:20:59.649Z,11.27
2018-11-04T12:23:27.920Z,11.19
2018-11-04T12:25:56.012Z,11.13
2018-11-04T12:28:24.162Z,11.10
2018-11-04T12:30:52.342Z,11.20
2018-11-04T12:33:20.566Z,11.28
2018-11-04T12:35:48.819Z,11.34
2018-11-04T12:38:17.014Z,11.39
2018-11-04T12:40:45.262Z,11.45
2018-11-04T12:43:13.869Z,11.47
2018-11-04T12:45:42.051Z,11.46
2018-11-04T12:48:10.185Z,11.48
2018-11-04T12:50:38.346Z,11.57
2018-11-04T12:53:06.506Z,11.58
2018-11-04T12:55:34.654Z,11.57
2018-11-04T12:58:02.958Z,11.61
2018-11-04T13:00:31.126Z,11.73
2018-11-04T13:02:59.281Z,12.25
2018-11-04T13:05:27.462Z,12.30
2018-11-04T13:07:55.617Z,12.43
2018-11-04T13:10:23.853Z,12.51
2018-11-04T13:12:52.822Z,12.46
2018-11-04T13:15:20.965Z,12.37
2018-11-04T13:17:49.146Z,12.52
2018-11-04T13:20:17.332Z,12.40
2018-11-04T13:22:45.554Z,12.26
2018-11-04T13:25:13.709Z,12.10
2018-11-04T13:27:41.878Z,12.09
2018-11-04T13:30:11.395Z,12.19
2018-11-04T13:32:39.657Z,12.09
2018-11-04T13:35:08.215Z,12.08
2018-11-04T13:37:36.516Z,12.01
2018-11-04T13:40:06.160Z,12.06
2018-11-04T13:42:35.256Z,12.07
2018-11-04T13:45:04.757Z,12.13
2018-11-04T13:47:32.920Z,12.16
2018-11-04T13:50:01.139Z,12.16
2018-11-04T13:52:29.336Z,12.18
2018-11-04T13:54:57.485Z,12.13
2018-11-04T13:57:25.749Z,12.12
2018-11-04T13:59:53.910Z,12.12
2018-11-04T14:02:22.084Z,12.13
2018-11-04T14:04:51.228Z,12.19
2018-11-04T14:07:19.391Z,12.22
2018-11-04T14:09:47.710Z,12.38
2018-11-04T14:12:15.926Z,12.35
2018-11-04T14:14:46.497Z,12.41
2018-11-04T14:17:15.096Z,12.44
2018-11-04T14:19:43.394Z,12.38
2018-11-04T14:22:11.620Z,12.43
2018-11-04T14:24:40.917Z,12.38
2018-11-04T14:27:09.072Z,12.34
2018-11-04T14:29:37.265Z,12.30
2018-11-04T14:32:05.879Z,12.26
2018-11-04T14:34:34.040Z,12.30
2018-11-04T14:37:03.014Z,12.33
2018-11-04T14:39:31.181Z,12.28
2018-11-04T14:41:59.328Z,12.22
2018-11-04T14:44:27.526Z,12.21
2018-11-04T14:46:55.690Z,12.22
2018-11-04T14:49:23.892Z,12.26
2018-11-04T14:51:52.131Z,12.28
2018-11-04T14:54:20.290Z,12.26
2018-11-04T14:56:48.439Z,12.27
2018-11-04T14:59:16.613Z,12.24
2018-11-04T15:01:44.936Z,12.25
2018-11-04T15:04:13.002Z,12.26
2018-11-04T15:06:42.019Z,12.26
2018-11-04T15:09:10.402Z,12.21
2018-11-04T15:11:38.555Z,12.12
2018-11-04T15:14:06.851Z,12.06
2018-11-04T15:16:35.175Z,11.97
2018-11-04T15:19:03.398Z,11.91
2018-11-04T15:21:31.622Z,11.81
2018-11-04T15:23:59.770Z,11.78
2018-11-04T15:26:27.971Z,11.64
2018-11-04T15:28:56.148Z,11.57
2018-11-04T15:31:24.311Z,11.47
2018-11-04T15:33:52.522Z,11.49
2018-11-04T15:36:20.766Z,11.37
2018-11-04T15:38:49.014Z,11.34
2018-11-04T15:41:17.178Z,11.33
2018-11-04T15:43:45.340Z,11.36
2018-11-04T15:46:13.530Z,11.31
2018-11-04T15:48:41.746Z,11.17
2018-11-04T15:51:09.978Z,11.01
2018-11-04T15:53:38.165Z,10.92
2018-11-04T15:56:06.473Z,10.82
2018-11-04T15:58:34.986Z,10.70
2018-11-04T16:01:03.205Z,10.57
2018-11-04T16:03:31.397Z,10.50
2018-11-04T16:05:59.651Z,10.41
2018-11-04T16:08:27.799Z,10.36
2018-11-04T16:10:56.024Z,10.24
2018-11-04T16:13:24.162Z,10.13
2018-11-04T16:15:52.312Z,9.96
2018-11-04T16:18:20.692Z,9.52
2018-11-04T16:20:48.716Z,9.23
2018-11-04T16:23:16.977Z,8.90
2018-11-04T16:25:45.167Z,8.90
2018-11-04T16:28:13.306Z,8.98
2018-11-04T16:30:41.443Z,9.02
2018-11-04T16:33:09.639Z,9.14
2018-11-04T16:35:37.802Z,9.12
2018-11-04T16:38:05.934Z,9.07
2018-11-04T16:40:34.131Z,8.92
2018-11-04T16:43:02.276Z,8.66
2018-11-04T16:45:30.498Z,8.48
2018-11-04T16:47:59.271Z,8.23
2018-11-04T16:50:27.431Z,8.23
2018-11-04T16:52:55.632Z,8.27
2018-11-04T16:55:25.013Z,8.46
2018-11-04T16:57:53.158Z,8.39
2018-11-04T17:00:21.321Z,8.23
2018-11-04T17:02:49.719Z,8.05
2018-11-04T17:05:18.170Z,7.87
2018-11-04T17:07:46.105Z,7.76
2018-11-04T17:10:14.291Z,7.68
2018-11-04T17:12:42.543Z,7.67
2018-11-04T17:15:12.350Z,7.55
2018-11-04T17:17:41.036Z,7.59
2018-11-04T17:20:15.359Z,7.57
2018-11-04T17:22:44.078Z,7.59
2018-11-04T17:25:12.727Z,7.56
2018-11-04T17:27:40.909Z,7.48
2018-11-04T17:30:12.482Z,7.34
2018-11-04T17:32:40.613Z,6.51
2018-11-04T17:35:10.124Z,6.59
2018-11-04T17:37:38.313Z,6.67
2018-11-04T17:40:07.602Z,6.68
2018-11-04T17:42:35.973Z,6.65
2018-11-04T17:45:04.191Z,6.68
2018-11-04T17:47:32.415Z,6.75
2018-11-04T17:50:00.547Z,6.55
2018-11-04T17:52:28.748Z,6.53
2018-11-04T17:54:56.954Z,6.56
2018-11-04T17:57:25.105Z,6.36
2018-11-04T17:59:53.329Z,6.19
2018-11-04T18:02:21.481Z,6.13
2018-11-04T18:04:49.622Z,6.25
2018-11-04T18:07:17.896Z,6.26
2018-11-04T18:09:46.053Z,6.66
2018-11-04T18:12:14.206Z,6.65
2018-11-04T18:14:42.357Z,6.49
2018-11-04T18:17:10.505Z,6.35
2018-11-04T18:19:38.725Z,6.21
2018-11-04T18:22:06.966Z,6.11
2018-11-04T18:24:35.142Z,5.96
2018-11-04T18:27:03.334Z,5.91
2018-11-04T18:29:31.480Z,5.98
2018-11-04T18:31:59.703Z,6.03
2018-11-04T18:34:27.830Z,6.10
2018-11-04T18:36:55.972Z,6.11
2018-11-04T18:39:24.178Z,5.72
2018-11-04T18:41:52.355Z,5.53
2018-11-04T18:44:20.515Z,5.54
2018-11-04T18:46:48.658Z,5.56
2018-11-04T18:49:16.835Z,5.48
2018-11-04T18:51:44.966Z,5.53
2018-11-04T18:54:13.120Z,5.82
2018-11-04T18:56:41.291Z,6.01
2018-11-04T18:59:09.491Z,5.86
2018-11-04T19:01:37.670Z,5.63
2018-11-04T19:04:05.818Z,5.70
2018-11-04T19:06:34.191Z,5.48
2018-11-04T19:09:02.420Z,5.56
2018-11-04T19:11:30.603Z,5.54
2018-11-04T19:13:58.682Z,5.70
2018-11-04T19:16:26.907Z,5.85
2018-11-04T19:18:55.099Z,5.45
2018-11-04T19:21:23.221Z,5.52
2018-11-04T19:23:52.206Z,5.49
2018-11-04T19:26:20.364Z,5.65
2018-11-04T19:28:48.506Z,5.62
2018-11-04T19:31:17.889Z,5.47
2018-11-04T19:33:45.971Z,5.49
2018-11-04T19:36:14.205Z,5.28
2018-11-04T19:38:42.954Z,5.29
2018-11-04T19:41:11.114Z,5.36
2018-11-04T19:43:39.268Z,5.17
2018-11-04T19:46:07.470Z,5.53
2018-11-04T19:48:35.648Z,6.00
2018-11-04T19:51:03.829Z,6.01
2018-11-04T19:53:31.923Z,5.89
2018-11-04T19:56:00.176Z,5.81
2018-11-04T19:58:28.357Z,5.77
2018-11-04T20:00:57.035Z,5.71
2018-11-04T20:03:25.182Z,5.88
2018-11-04T20:05:53.333Z,6.01
2018-11-04T20:08:23.519Z,6.08
2018-11-04T20:10:51.836Z,6.25
2018-11-04T20:13:25.500Z,6.50
2018-11-04T20:15:53.631Z,6.64
2018-11-04T20:18:27.131Z,6.66
2018-11-04T20:20:55.340Z,6.71
2018-11-04T20:23:23.463Z,6.82
2018-11-04T20:25:57.062Z,6.76
2018-11-04T20:28:25.195Z,6.77
2018-11-04T20:30:53.350Z,6.87
2018-11-04T20:33:21.549Z,7.07
2018-11-04T20:35:49.742Z,7.14
2018-11-04T20:38:17.836Z,7.24
2018-11-04T20:40:51.573Z,7.37
2018-11-04T20:43:19.754Z,7.41
2018-11-04T20:45:47.920Z,7.67
2018-11-04T20:49:25.426Z,7.70
2018-11-04T20:51:54.462Z,7.78
2018-11-04T20:54:22.588Z,8.01
2018-11-04T20:56:56.123Z,7.92
2018-11-04T20:59:24.408Z,7.86
2018-11-04T21:01:52.625Z,7.91
2018-11-04T21:04:20.851Z,8.05
2018-11-04T21:06:48.997Z,8.08
2018-11-04T21:09:17.751Z,8.06
2018-11-04T21:11:45.926Z,8.10
2018-11-04T21:14:14.104Z,8.11
2018-11-04T21:16:43.092Z,8.10
2018-11-04T21:19:11.119Z,8.09
2018-11-04T21:21:39.271Z,8.08
2018-11-04T21:24:07.436Z,7.92
2018-11-04T21:26:35.669Z,7.99
2018-11-04T21:29:03.866Z,8.09
2018-11-04T21:31:32.068Z,8.16
2018-11-04T21:34:00.943Z,8.20
2018-11-04T21:36:29.171Z,8.19
2018-11-04T21:38:57.354Z,8.23
2018-11-04T21:41:25.664Z,8.31
2018-11-04T21:43:54.082Z,8.28
2018-11-04T21:46:22.924Z,8.29
2018-11-04T21:48:51.054Z,8.33
2018-11-04T21:51:19.210Z,8.27
2018-11-04T21:53:47.371Z,8.24
2018-11-04T21:56:15.750Z,8.30
2018-11-04T21:58:43.885Z,8.31
2018-11-04T22:01:12.035Z,8.30
2018-11-04T22:03:40.544Z,8.31
2018-11-04T22:06:08.583Z,8.31
2018-11-04T22:08:36.743Z,8.31
2018-11-04T22:11:04.873Z,8.34
2018-11-04T22:13:33.114Z,8.41
2018-11-04T22:16:01.229Z,8.51
2018-11-04T22:18:29.363Z,8.51
2018-11-04T22:20:57.599Z,8.52
2018-11-04T22:23:25.915Z,8.54
2018-11-04T22:25:54.098Z,8.74
2018-11-04T22:28:22.240Z,8.75
2018-11-04T22:30:50.384Z,8.71
2018-11-04T22:33:18.654Z,8.59
2018-11-04T22:35:46.797Z,8.49
2018-11-04T22:38:14.955Z,8.57
2018-11-04T22:40:43.121Z,8.58
2018-11-04T22:43:11.359Z,8.62
2018-11-04T22:45:39.529Z,8.58
2018-11-04T22:48:07.720Z,8.61
2018-11-04T22:50:35.886Z,8.60
2018-11-04T22:53:04.026Z,8.64
2018-11-04T22:55:32.209Z,8.66
2018-11-04T22:58:06.503Z,8.69
2018-11-04T23:00:42.894Z,8.76
2018-11-04T23:03:11.356Z,8.78
2018-11-04T23:05:39.523Z,8.77
2018-11-04T23:08:08.330Z,8.76
2018-11-04T23:10:36.694Z,8.75
2018-11-04T23:13:04.898Z,8.77
2018-11-04T23:15:33.069Z,8.82
2018-11-04T23:18:02.393Z,8.82
2018-11-04T23:20:32.722Z,8.81
2018-11-04T23:23:02.955Z,8.86
2018-11-04T23:25:34.035Z,8.86
2018-11-04T23:28:03.139Z,8.89
2018-11-04T23:30:32.125Z,8.90
2018-11-04T23:33:00.911Z,8.91
2018-11-04T23:35:29.099Z,8.96
2018-11-04T23:37:57.255Z,9.02
2018-11-04T23:40:25.460Z,8.99
2018-11-04T23:42:53.780Z,8.91
2018-11-04T23:45:21.910Z,8.92
2018-11-04T23:47:50.052Z,8.95
2018-11-04T23:50:18.377Z,9.03
2018-11-04T23:52:46.679Z,9.00
2018-11-04T23:55:15.507Z,9.00
2018-11-04T23:57:44.408Z,8.95
